createdAt,value
2023-05-24T00:00:22.995Z,9.37
2023-05-24T00:02:27.073Z,11.63
2023-05-24T00:04:30.193Z,7.93
2023-05-24T00:06:34.891Z,14.43
2023-05-24T00:08:37.623Z,12.63
2023-05-24T00:10:40.440Z,10.77
2023-05-24T00:12:43.562Z,16.33
2023-05-24T00:14:46.432Z,13.10
2023-05-24T00:16:50.568Z,19.57
2023-05-24T00:18:54.847Z,21.27
2023-05-24T00:20:58.526Z,11.80
2023-05-24T00:23:01.551Z,14.67
2023-05-24T00:25:05.120Z,14.93
2023-05-24T00:27:08.447Z,13.80
2023-05-24T00:29:11.250Z,14.30
2023-05-24T00:31:14.074Z,17.07
2023-05-24T00:33:18.176Z,14.47
2023-05-24T00:35:20.984Z,16.23
2023-05-24T00:37:23.736Z,14.83
2023-05-24T00:39:26.493Z,15.60
2023-05-24T00:41:29.282Z,16.23
2023-05-24T00:43:32.093Z,15.17
2023-05-24T00:45:34.861Z,10.57
2023-05-24T00:47:37.936Z,17.67
2023-05-24T00:49:42.241Z,16.23
2023-05-24T00:51:45.046Z,13.47
2023-05-24T00:53:49.269Z,14.50
2023-05-24T00:55:52.044Z,14.87
2023-05-24T00:57:55.371Z,10.20
2023-05-24T00:59:58.245Z,9.47
2023-05-24T01:02:01.113Z,12.50
2023-05-24T01:04:04.286Z,11.73
2023-05-24T01:06:09.634Z,11.23
2023-05-24T01:08:23.839Z,11.20
2023-05-24T01:10:33.169Z,14.00
2023-05-24T01:12:47.111Z,16.93
2023-05-24T01:14:59.274Z,19.77
2023-05-24T01:17:20.561Z,14.07
2023-05-24T01:19:43.437Z,17.83
2023-05-24T01:22:09.233Z,13.63
2023-05-24T01:24:23.582Z,17.93
2023-05-24T01:26:38.586Z,19.03
2023-05-24T01:28:43.355Z,19.73
2023-05-24T01:30:46.886Z,20.83
2023-05-24T01:32:49.837Z,10.47
2023-05-24T01:34:52.590Z,11.33
2023-05-24T01:36:55.386Z,13.37
2023-05-24T01:38:58.157Z,10.33
2023-05-24T01:41:06.851Z,14.60
2023-05-24T01:43:16.761Z,12.97
2023-05-24T01:45:30.606Z,12.80
2023-05-24T01:47:46.215Z,13.73
2023-05-24T01:49:51.967Z,15.43
2023-05-24T01:52:00.283Z,13.70
2023-05-24T01:54:06.031Z,18.70
2023-05-24T01:56:09.680Z,13.43
2023-05-24T01:58:14.123Z,12.40
2023-05-24T02:00:19.240Z,15.07
2023-05-24T02:02:23.683Z,16.00
2023-05-24T02:04:26.799Z,17.10
2023-05-24T02:06:29.594Z,17.27
2023-05-24T02:08:32.427Z,17.80
2023-05-24T02:10:35.320Z,15.50
2023-05-24T02:12:38.171Z,19.47
2023-05-24T02:14:42.802Z,17.80
2023-05-24T02:16:47.007Z,11.63
2023-05-24T02:18:51.651Z,16.57
2023-05-24T02:20:54.399Z,18.70
2023-05-24T02:22:57.549Z,13.73
2023-05-24T02:25:00.305Z,19.70
2023-05-24T02:27:03.146Z,13.90
2023-05-24T02:29:06.171Z,16.67
2023-05-24T02:31:08.965Z,12.43
2023-05-24T02:33:12.237Z,15.87
2023-05-24T02:35:16.451Z,12.90
2023-05-24T02:37:20.642Z,9.97
2023-05-24T02:39:23.399Z,16.77
2023-05-24T02:41:26.543Z,13.97
2023-05-24T02:43:29.347Z,19.70
2023-05-24T02:45:32.322Z,15.43
2023-05-24T02:47:35.105Z,18.07
2023-05-24T02:49:37.881Z,12.93
2023-05-24T02:51:42.322Z,11.00
2023-05-24T02:53:45.361Z,13.50
2023-05-24T02:55:48.113Z,22.27
2023-05-24T02:57:51.372Z,14.90
2023-05-24T02:59:54.245Z,19.33
2023-05-24T03:01:57.005Z,15.53
2023-05-24T03:03:59.854Z,12.37
2023-05-24T03:06:02.663Z,9.23
2023-05-24T03:08:07.912Z,14.33
2023-05-24T03:10:11.550Z,18.80
2023-05-24T03:12:15.010Z,17.97
2023-05-24T03:14:17.827Z,13.00
2023-05-24T03:16:21.151Z,13.47
2023-05-24T03:18:24.033Z,12.77
2023-05-24T03:20:26.829Z,8.57
2023-05-24T03:22:29.643Z,13.93
2023-05-24T03:24:34.324Z,16.63
2023-05-24T03:26:37.513Z,13.93
2023-05-24T03:28:40.676Z,10.50
2023-05-24T03:30:43.813Z,17.80
2023-05-24T03:32:46.933Z,18.37
2023-05-24T03:34:49.926Z,10.60
2023-05-24T03:36:52.844Z,17.13
2023-05-24T03:38:58.097Z,15.10
2023-05-24T03:41:02.312Z,17.93
2023-05-24T03:43:05.110Z,14.93
2023-05-24T03:45:09.158Z,18.63
2023-05-24T03:47:12.049Z,15.83
2023-05-24T03:49:14.832Z,18.47
2023-05-24T03:51:17.750Z,12.27
2023-05-24T03:53:22.971Z,21.83
2023-05-24T03:55:26.326Z,19.80
2023-05-24T03:57:30.386Z,17.27
2023-05-24T03:59:33.152Z,11.87
2023-05-24T04:01:36.648Z,19.27
2023-05-24T04:03:40.759Z,19.10
2023-05-24T04:05:43.576Z,16.33
2023-05-24T04:07:46.464Z,11.73
2023-05-24T04:09:49.331Z,13.50
2023-05-24T04:11:52.257Z,18.30
2023-05-24T04:13:56.875Z,18.17
2023-05-24T04:15:59.619Z,17.33
2023-05-24T04:18:03.464Z,11.73
2023-05-24T04:20:07.489Z,19.77
2023-05-24T04:22:10.557Z,21.10
2023-05-24T04:24:13.352Z,22.70
2023-05-24T04:26:17.634Z,20.43
2023-05-24T04:28:22.226Z,19.00
2023-05-24T04:30:26.332Z,15.37
2023-05-24T04:32:30.402Z,13.47
2023-05-24T04:34:33.892Z,21.30
2023-05-24T04:36:36.995Z,17.97
2023-05-24T04:38:41.085Z,17.00
2023-05-24T04:40:44.160Z,14.30
2023-05-24T04:42:47.201Z,18.90
2023-05-24T04:44:49.989Z,16.67
2023-05-24T04:46:54.538Z,14.43
2023-05-24T04:48:57.491Z,15.87
2023-05-24T04:51:00.543Z,14.70
2023-05-24T04:53:03.971Z,21.47
2023-05-24T04:55:07.684Z,13.40
2023-05-24T04:57:10.507Z,11.80
2023-05-24T04:59:13.234Z,20.67
2023-05-24T05:01:16.100Z,13.60
2023-05-24T05:03:20.730Z,22.20
2023-05-24T05:05:23.652Z,23.80
2023-05-24T05:07:26.465Z,18.57
2023-05-24T05:09:29.278Z,21.43
2023-05-24T05:11:32.047Z,18.30
2023-05-24T05:13:34.867Z,19.63
2023-05-24T05:15:37.625Z,17.33
2023-05-24T05:17:40.636Z,14.87
2023-05-24T05:19:44.753Z,18.97
2023-05-24T05:21:47.559Z,20.27
2023-05-24T05:23:50.468Z,19.53
2023-05-24T05:25:53.290Z,18.77
2023-05-24T05:27:56.032Z,17.33
2023-05-24T05:29:58.826Z,12.90
2023-05-24T05:32:01.589Z,20.17
2023-05-24T05:34:04.482Z,15.00
2023-05-24T05:36:08.784Z,18.23
2023-05-24T05:38:11.542Z,14.47
2023-05-24T05:40:14.266Z,22.47
2023-05-24T05:42:17.080Z,20.53
2023-05-24T05:44:19.891Z,25.93
2023-05-24T05:46:22.720Z,20.50
2023-05-24T05:48:26.682Z,23.13
2023-05-24T05:50:29.421Z,20.47
2023-05-24T05:52:33.555Z,30.90
2023-05-24T05:54:36.304Z,20.90
2023-05-24T05:56:44.841Z,18.03
2023-05-24T05:58:47.660Z,22.43
2023-05-24T06:00:50.745Z,23.10
2023-05-24T06:02:53.634Z,22.37
2023-05-24T06:04:56.503Z,20.20
2023-05-24T06:06:59.517Z,20.67
2023-05-24T06:09:03.668Z,19.87
2023-05-24T06:11:06.470Z,17.60
2023-05-24T06:13:09.184Z,14.43
2023-05-24T06:15:12.445Z,21.20
2023-05-24T06:17:15.227Z,20.70
2023-05-24T06:19:18.300Z,22.10
2023-05-24T06:21:21.716Z,17.07
2023-05-24T06:23:24.565Z,22.77
2023-05-24T06:25:30.865Z,22.73
2023-05-24T06:27:33.611Z,27.40
2023-05-24T06:29:36.421Z,19.77
2023-05-24T06:31:39.435Z,22.33
2023-05-24T06:33:46.797Z,27.57
2023-05-24T06:35:52.245Z,25.97
2023-05-24T06:37:55.022Z,88.00
2023-05-24T06:39:57.878Z,28.80
2023-05-24T06:42:02.050Z,20.70
2023-05-24T06:44:04.873Z,20.33
2023-05-24T06:46:07.897Z,31.27
2023-05-24T06:48:10.804Z,26.00
2023-05-24T06:50:13.750Z,26.77
2023-05-24T06:52:16.641Z,28.97
2023-05-24T06:54:19.591Z,34.30
2023-05-24T06:56:23.152Z,24.80
2023-05-24T06:58:27.251Z,26.60
2023-05-24T07:00:29.995Z,22.10
2023-05-24T07:02:32.802Z,26.67
2023-05-24T07:04:35.582Z,21.90
2023-05-24T07:06:39.369Z,20.57
2023-05-24T07:08:42.351Z,21.30
2023-05-24T07:10:45.272Z,23.57
2023-05-24T07:12:48.171Z,27.73
2023-05-24T07:14:53.276Z,23.40
2023-05-24T07:16:57.600Z,23.27
2023-05-24T07:19:03.147Z,29.17
2023-05-24T07:21:07.493Z,24.60
2023-05-24T07:23:10.619Z,26.90
2023-05-24T07:25:13.475Z,20.57
2023-05-24T07:27:16.365Z,24.10
2023-05-24T07:29:19.144Z,25.23
2023-05-24T07:31:23.254Z,17.20
2023-05-24T07:33:26.105Z,22.17
2023-05-24T07:35:30.049Z,29.37
2023-05-24T07:37:32.801Z,24.47
2023-05-24T07:39:35.586Z,22.17
2023-05-24T07:41:38.407Z,27.07
2023-05-24T07:43:41.143Z,26.40
2023-05-24T07:45:44.431Z,19.13
2023-05-24T07:47:48.665Z,21.23
2023-05-24T07:49:51.428Z,21.47
2023-05-24T07:51:56.871Z,26.43
2023-05-24T07:53:59.609Z,18.37
2023-05-24T07:56:02.332Z,19.90
2023-05-24T07:58:05.116Z,33.13
2023-05-24T08:00:10.619Z,21.87
2023-05-24T08:02:13.794Z,17.07
2023-05-24T08:04:17.857Z,19.57
2023-05-24T08:06:20.837Z,22.77
2023-05-24T08:08:24.353Z,33.63
2023-05-24T08:10:27.542Z,21.30
2023-05-24T08:12:31.296Z,18.70
2023-05-24T08:14:34.476Z,19.50
2023-05-24T08:16:37.227Z,21.30
2023-05-24T08:18:40.095Z,23.33
2023-05-24T08:20:44.282Z,23.53
2023-05-24T08:22:48.344Z,25.63
2023-05-24T08:24:51.578Z,20.20
2023-05-24T08:26:54.397Z,26.93
2023-05-24T08:28:57.217Z,13.03
2023-05-24T08:30:59.967Z,20.67
2023-05-24T08:33:02.928Z,24.07
2023-05-24T08:35:18.639Z,21.00
2023-05-24T08:37:25.042Z,22.00
2023-05-24T08:39:27.804Z,20.03
2023-05-24T08:41:32.798Z,22.03
2023-05-24T08:43:36.326Z,16.93
2023-05-24T08:45:41.085Z,20.20
2023-05-24T08:47:44.415Z,16.43
2023-05-24T08:49:48.488Z,19.87
2023-05-24T08:51:52.922Z,24.63
2023-05-24T08:53:58.644Z,16.37
2023-05-24T08:56:01.931Z,20.37
2023-05-24T08:58:05.831Z,21.70
2023-05-24T09:00:11.610Z,16.10
2023-05-24T09:02:16.425Z,16.10
2023-05-24T09:04:20.333Z,16.70
2023-05-24T09:06:25.355Z,15.67
2023-05-24T09:08:28.542Z,15.70
2023-05-24T09:10:44.934Z,15.20
2023-05-24T09:12:52.595Z,14.83
2023-05-24T09:14:55.940Z,15.63
2023-05-24T09:16:59.616Z,12.13
2023-05-24T09:19:03.432Z,14.57
2023-05-24T09:21:08.034Z,13.53
2023-05-24T09:23:12.025Z,21.37
2023-05-24T09:25:16.053Z,17.50
2023-05-24T09:27:21.681Z,14.80
2023-05-24T09:29:24.699Z,16.63
2023-05-24T09:31:34.499Z,20.97
2023-05-24T09:33:37.598Z,18.87
2023-05-24T09:35:43.505Z,14.03
2023-05-24T09:37:48.333Z,13.53
2023-05-24T09:39:51.815Z,20.33
2023-05-24T09:41:58.791Z,21.43
2023-05-24T09:44:03.313Z,16.20
2023-05-24T09:46:06.398Z,14.20
2023-05-24T09:48:12.687Z,18.23
2023-05-24T09:50:17.423Z,11.13
2023-05-24T09:52:20.645Z,11.87
2023-05-24T09:54:25.722Z,14.77
2023-05-24T09:56:29.047Z,14.00
2023-05-24T09:58:33.135Z,16.50
2023-05-24T10:00:42.510Z,14.10
2023-05-24T10:02:53.394Z,16.87
2023-05-24T10:05:01.570Z,17.73
2023-05-24T10:07:05.773Z,12.27
2023-05-24T10:09:09.864Z,14.33
2023-05-24T10:11:12.775Z,14.90
2023-05-24T10:13:17.760Z,13.47
2023-05-24T10:15:20.711Z,14.60
2023-05-24T10:17:28.052Z,15.77
2023-05-24T10:19:30.944Z,14.47
2023-05-24T10:21:37.675Z,14.17
2023-05-24T10:23:44.862Z,15.47
2023-05-24T10:25:53.787Z,15.97
2023-05-24T10:27:59.449Z,11.17
2023-05-24T10:30:11.388Z,14.17
2023-05-24T10:32:18.176Z,17.93
2023-05-24T10:34:22.900Z,14.10
2023-05-24T10:36:26.123Z,16.33
2023-05-24T10:38:30.856Z,12.53
2023-05-24T10:40:33.845Z,12.43
2023-05-24T10:42:36.813Z,14.23
2023-05-24T10:44:39.660Z,11.57
2023-05-24T10:47:10.804Z,15.03
2023-05-24T10:49:15.140Z,14.97
2023-05-24T10:51:38.623Z,11.20
2023-05-24T10:53:42.108Z,12.87
2023-05-24T10:55:56.100Z,9.17
2023-05-24T10:57:58.856Z,12.87
2023-05-24T11:02:36.625Z,15.47
2023-05-24T11:04:43.082Z,15.07
2023-05-24T11:06:55.645Z,14.03
2023-05-24T11:09:01.708Z,12.80
2023-05-24T11:11:23.284Z,17.50
2023-05-24T11:13:31.094Z,16.10
2023-05-24T11:15:33.950Z,13.57
2023-05-24T11:18:16.981Z,12.83
2023-05-24T11:20:21.074Z,14.23
2023-05-24T11:22:26.725Z,11.53
2023-05-24T11:24:30.196Z,13.03
2023-05-24T11:26:33.389Z,13.77
2023-05-24T11:28:38.337Z,20.23
2023-05-24T11:30:41.889Z,17.43
2023-05-24T11:32:49.662Z,11.90
2023-05-24T11:34:52.494Z,14.63
2023-05-24T11:36:55.559Z,21.13
2023-05-24T11:39:01.329Z,20.43
2023-05-24T11:41:04.136Z,11.77
2023-05-24T11:43:07.614Z,17.23
2023-05-24T11:45:11.247Z,12.57
2023-05-24T11:47:14.407Z,15.20
2023-05-24T11:49:18.307Z,8.83
2023-05-24T11:51:27.254Z,13.13
2023-05-24T11:53:30.031Z,15.70
2023-05-24T11:55:34.142Z,11.07
2023-05-24T11:57:40.037Z,11.90
2023-05-24T11:59:43.147Z,15.10
2023-05-24T12:01:45.963Z,8.97
2023-05-24T12:03:49.259Z,11.63
2023-05-24T12:05:52.818Z,16.40
2023-05-24T12:08:04.769Z,10.63
2023-05-24T12:10:09.628Z,15.23
2023-05-24T12:12:13.855Z,12.27
2023-05-24T12:14:18.312Z,10.50
2023-05-24T12:16:21.226Z,12.47
2023-05-24T12:18:26.016Z,12.13
2023-05-24T12:20:29.198Z,12.60
2023-05-24T12:22:32.062Z,9.97
2023-05-24T12:24:35.239Z,9.77
2023-05-24T12:26:38.957Z,12.27
2023-05-24T12:28:44.056Z,10.87
2023-05-24T12:30:47.325Z,11.40
2023-05-24T12:32:50.543Z,11.67
2023-05-24T12:34:54.785Z,11.87
2023-05-24T12:36:57.932Z,13.07
2023-05-24T12:39:00.697Z,7.27
2023-05-24T12:41:13.105Z,7.23
2023-05-24T12:43:17.374Z,7.53
2023-05-24T12:45:25.737Z,10.43
2023-05-24T12:47:28.623Z,7.90
2023-05-24T12:49:32.543Z,8.17
2023-05-24T12:51:36.591Z,11.90
2023-05-24T12:53:39.324Z,11.67
2023-05-24T12:55:42.328Z,17.00
2023-05-24T12:57:52.864Z,17.33
2023-05-24T12:59:55.617Z,14.70
2023-05-24T13:02:00.375Z,14.97
2023-05-24T13:04:03.152Z,12.10
2023-05-24T13:06:06.763Z,12.83
2023-05-24T13:08:11.111Z,12.80
2023-05-24T13:10:14.515Z,8.20
2023-05-24T13:12:17.601Z,10.70
2023-05-24T13:14:20.817Z,15.10
2023-05-24T13:16:24.256Z,19.23
2023-05-24T13:18:28.423Z,11.80
2023-05-24T13:20:31.246Z,8.70
2023-05-24T13:22:35.585Z,8.97
2023-05-24T13:24:38.340Z,7.43
2023-05-24T13:26:41.535Z,14.57
2023-05-24T13:29:07.721Z,11.20
2023-05-24T13:31:07.789Z,10.50
2023-05-24T13:33:10.702Z,10.20
2023-05-24T13:35:14.866Z,9.20
2023-05-24T13:37:17.738Z,8.40
2023-05-24T13:39:21.561Z,7.17
2023-05-24T13:41:25.076Z,9.00
2023-05-24T13:43:27.872Z,13.23
2023-05-24T13:45:33.064Z,13.27
2023-05-24T13:47:40.117Z,11.50
2023-05-24T13:49:43.634Z,8.90
2023-05-24T13:51:47.999Z,10.20
2023-05-24T13:53:51.015Z,9.33
2023-05-24T13:55:53.886Z,14.20
2023-05-24T13:57:57.294Z,13.57
2023-05-24T14:00:00.751Z,9.20
2023-05-24T14:02:03.611Z,9.63
2023-05-24T14:04:07.896Z,9.40
2023-05-24T14:06:10.886Z,14.63
2023-05-24T14:08:15.030Z,13.50
2023-05-24T14:10:20.820Z,12.87
2023-05-24T14:12:24.179Z,9.20
2023-05-24T14:16:32.688Z,7.30
2023-05-24T14:18:35.942Z,8.43
2023-05-24T14:20:40.400Z,9.50
2023-05-24T14:22:43.602Z,10.03
2023-05-24T14:24:48.039Z,11.77
2023-05-24T14:26:50.779Z,16.97
2023-05-24T14:28:56.232Z,11.00
2023-05-24T14:30:59.982Z,6.83
2023-05-24T14:33:02.769Z,6.30
2023-05-24T14:35:06.708Z,9.63
2023-05-24T14:37:09.509Z,6.50
2023-05-24T14:39:12.551Z,7.97
2023-05-24T14:41:16.649Z,9.07
2023-05-24T14:43:19.382Z,5.37
2023-05-24T14:45:22.261Z,7.17
2023-05-24T14:47:25.061Z,7.50
2023-05-24T14:49:27.837Z,6.27
2023-05-24T14:51:30.687Z,7.33
2023-05-24T14:53:33.473Z,6.87
2023-05-24T14:55:36.481Z,6.70
2023-05-24T14:57:41.871Z,5.20
2023-05-24T14:59:44.727Z,4.53
2023-05-24T15:01:47.584Z,4.20
2023-05-24T15:03:50.481Z,6.00
2023-05-24T15:05:53.318Z,3.93
2023-05-24T15:07:56.060Z,5.47
2023-05-24T15:09:58.839Z,5.63
2023-05-24T15:12:02.014Z,4.67
2023-05-24T15:14:06.201Z,7.23
2023-05-24T15:16:09.198Z,4.57
2023-05-24T15:18:12.087Z,5.10
2023-05-24T15:20:15.040Z,4.57
2023-05-24T15:22:17.829Z,3.90
2023-05-24T15:24:20.600Z,2.63
2023-05-24T15:26:23.493Z,3.20
2023-05-24T15:28:26.823Z,4.57
2023-05-24T15:30:31.601Z,4.03
2023-05-24T15:32:34.350Z,9.13
2023-05-24T15:34:37.161Z,4.28
2023-05-24T15:36:41.119Z,4.30
2023-05-24T15:38:43.932Z,3.75
2023-05-24T15:40:47.072Z,4.10
2023-05-24T15:42:50.106Z,3.25
2023-05-24T15:44:52.989Z,3.83
2023-05-24T15:46:57.296Z,3.13
2023-05-24T15:49:00.140Z,6.88
2023-05-24T15:53:08.601Z,4.13
2023-05-24T15:55:11.454Z,7.78
2023-05-24T15:57:14.284Z,5.82
2023-05-24T15:59:18.130Z,7.10
2023-05-24T16:01:22.487Z,3.77
2023-05-24T16:03:26.768Z,4.73
2023-05-24T16:05:29.666Z,5.93
2023-05-24T16:07:32.838Z,3.83
2023-05-24T16:09:35.663Z,4.97
2023-05-24T16:11:38.403Z,3.70
2023-05-24T16:13:41.323Z,5.40
2023-05-24T16:15:50.898Z,5.18
2023-05-24T16:17:53.711Z,6.75
2023-05-24T16:19:59.145Z,3.83
2023-05-24T16:22:02.025Z,6.82
2023-05-24T16:24:05.330Z,4.40
2023-05-24T16:26:08.129Z,3.63
2023-05-24T16:28:10.910Z,3.88
2023-05-24T16:30:14.177Z,3.80
2023-05-24T16:32:17.031Z,5.15
2023-05-24T16:34:19.906Z,3.58
2023-05-24T16:36:24.713Z,3.90
2023-05-24T16:38:27.499Z,4.07
2023-05-24T16:40:30.654Z,5.90
2023-05-24T16:42:33.436Z,5.85
2023-05-24T16:44:36.210Z,6.00
2023-05-24T16:46:39.054Z,5.57
2023-05-24T16:48:41.946Z,5.57
2023-05-24T16:50:44.889Z,4.55
2023-05-24T16:52:49.084Z,3.25
2023-05-24T16:54:52.042Z,4.25
2023-05-24T16:56:54.985Z,21.58
2023-05-24T16:58:57.846Z,8.02
2023-05-24T17:01:00.769Z,5.43
2023-05-24T17:03:04.123Z,7.63
2023-05-24T17:05:07.864Z,6.20
2023-05-24T17:07:10.680Z,3.10
2023-05-24T17:09:14.770Z,6.00
2023-05-24T17:11:19.748Z,20.97
2023-05-24T17:13:22.676Z,29.57
2023-05-24T17:15:25.502Z,4.33
2023-05-24T17:17:28.309Z,7.83
2023-05-24T17:19:31.761Z,4.93
2023-05-24T17:21:34.561Z,5.97
2023-05-24T17:23:37.821Z,3.70
2023-05-24T17:25:41.923Z,2.63
2023-05-24T17:27:44.807Z,3.83
2023-05-24T17:29:47.815Z,6.90
2023-05-24T17:31:50.978Z,3.67
2023-05-24T17:33:53.833Z,4.30
2023-05-24T17:35:57.594Z,4.07
2023-05-24T17:38:00.576Z,6.40
2023-05-24T17:40:03.488Z,5.27
2023-05-24T17:42:07.883Z,5.47
2023-05-24T17:44:10.642Z,6.20
2023-05-24T17:46:14.230Z,3.93
2023-05-24T17:48:17.472Z,3.63
2023-05-24T17:50:20.293Z,3.27
2023-05-24T17:52:23.019Z,3.83
2023-05-24T17:54:26.018Z,5.20
2023-05-24T17:56:30.388Z,4.43
2023-05-24T17:58:37.333Z,4.17
2023-05-24T18:00:40.823Z,4.67
2023-05-24T18:02:43.725Z,4.10
2023-05-24T18:04:46.539Z,2.87
2023-05-24T18:06:49.380Z,2.53
2023-05-24T18:08:52.119Z,2.67
2023-05-24T18:10:54.963Z,3.27
2023-05-24T18:12:57.709Z,4.70
2023-05-24T18:15:01.903Z,6.03
2023-05-24T18:17:05.034Z,2.23
2023-05-24T18:19:07.845Z,5.17
2023-05-24T18:21:10.808Z,3.00
2023-05-24T18:23:13.561Z,2.03
2023-05-24T18:25:16.672Z,5.37
2023-05-24T18:27:19.562Z,7.23
2023-05-24T18:29:22.351Z,7.07
2023-05-24T18:31:26.459Z,3.63
2023-05-24T18:33:29.204Z,3.40
2023-05-24T18:35:32.145Z,3.37
2023-05-24T18:37:35.035Z,3.37
2023-05-24T18:39:37.807Z,3.57
2023-05-24T18:41:40.640Z,3.10
2023-05-24T18:43:43.716Z,2.93
2023-05-24T18:45:46.618Z,9.63
2023-05-24T18:47:50.777Z,3.07
2023-05-24T18:49:53.701Z,3.30
2023-05-24T18:51:56.527Z,2.83
2023-05-24T18:53:59.307Z,4.13
2023-05-24T18:56:02.096Z,4.13
2023-05-24T18:58:06.602Z,3.67
2023-05-24T19:00:10.506Z,3.23
2023-05-24T19:02:13.446Z,3.67
2023-05-24T19:04:17.578Z,2.40
2023-05-24T19:06:20.432Z,5.40
2023-05-24T19:08:23.248Z,3.70
2023-05-24T19:10:26.071Z,5.63
2023-05-24T19:12:28.918Z,4.07
2023-05-24T19:14:32.402Z,2.87
2023-05-24T19:16:35.257Z,5.50
2023-05-24T19:18:38.199Z,3.33
2023-05-24T19:20:43.127Z,5.03
2023-05-24T19:22:46.036Z,8.30
2023-05-24T19:24:48.851Z,4.77
2023-05-24T19:26:51.792Z,3.67
2023-05-24T19:28:54.703Z,4.00
2023-05-24T19:31:01.089Z,6.90
2023-05-24T19:33:04.168Z,3.10
2023-05-24T19:35:08.393Z,3.30
2023-05-24T19:37:12.560Z,4.30
2023-05-24T19:39:15.392Z,4.73
2023-05-24T19:41:18.265Z,4.20
2023-05-24T19:43:21.047Z,4.73
2023-05-24T19:45:23.926Z,4.53
2023-05-24T19:47:26.723Z,3.53
2023-05-24T19:49:29.556Z,4.43
2023-05-24T19:51:32.361Z,5.73
2023-05-24T19:53:36.431Z,5.40
2023-05-24T19:55:39.299Z,5.53
2023-05-24T19:57:42.090Z,3.90
2023-05-24T19:59:44.875Z,3.63
2023-05-24T20:01:47.784Z,4.90
2023-05-24T20:03:50.635Z,3.87
2023-05-24T20:05:53.459Z,5.53
2023-05-24T20:07:56.201Z,3.90
2023-05-24T20:10:00.833Z,7.57
2023-05-24T20:12:04.523Z,4.47
2023-05-24T20:14:07.298Z,5.87
2023-05-24T20:16:10.234Z,4.67
2023-05-24T20:18:13.061Z,5.33
2023-05-24T20:20:16.091Z,6.03
2023-05-24T20:22:19.017Z,5.03
2023-05-24T20:24:21.808Z,5.87
2023-05-24T20:26:25.970Z,5.37
2023-05-24T20:28:31.222Z,5.47
2023-05-24T20:30:35.476Z,7.87
2023-05-24T20:32:38.325Z,5.97
2023-05-24T20:34:41.165Z,4.90
2023-05-24T20:36:44.131Z,4.03
2023-05-24T20:38:47.612Z,7.77
2023-05-24T20:40:50.522Z,6.43
2023-05-24T20:42:55.363Z,6.20
2023-05-24T20:44:58.134Z,6.20
2023-05-24T20:47:01.060Z,4.77
2023-05-24T20:49:03.877Z,6.70
2023-05-24T20:51:08.097Z,7.80
2023-05-24T20:53:10.959Z,9.20
2023-05-24T20:55:16.205Z,5.27
2023-05-24T20:57:19.044Z,7.23
2023-05-24T20:59:23.158Z,11.23
2023-05-24T21:01:26.682Z,11.30
2023-05-24T21:03:30.032Z,7.00
2023-05-24T21:05:36.253Z,5.70
2023-05-24T21:07:39.019Z,6.50
2023-05-24T21:09:41.824Z,10.70
2023-05-24T21:11:44.756Z,11.03
2023-05-24T21:13:47.580Z,8.50
2023-05-24T21:15:51.691Z,7.80
2023-05-24T21:17:54.509Z,6.27
2023-05-24T21:19:57.328Z,8.37
2023-05-24T21:22:00.189Z,8.27
2023-05-24T21:24:03.492Z,6.80
2023-05-24T21:26:06.448Z,6.90
2023-05-24T21:28:10.286Z,7.23
2023-05-24T21:30:14.395Z,6.27
2023-05-24T21:32:18.551Z,9.93
2023-05-24T21:34:21.295Z,9.00
2023-05-24T21:36:24.128Z,8.17
2023-05-24T21:38:26.885Z,8.60
2023-05-24T21:40:29.605Z,6.47
2023-05-24T21:42:32.395Z,8.97
2023-05-24T21:44:35.252Z,7.20
2023-05-24T21:46:38.089Z,9.43
2023-05-24T21:48:42.241Z,7.63
2023-05-24T21:50:45.341Z,6.13
2023-05-24T21:52:48.073Z,8.00
2023-05-24T21:54:50.852Z,5.70
2023-05-24T21:56:53.614Z,8.70
2023-05-24T21:58:56.438Z,10.47
2023-05-24T22:00:59.204Z,12.97
2023-05-24T22:03:02.045Z,7.60
2023-05-24T22:05:06.720Z,10.27
2023-05-24T22:07:09.525Z,9.63
2023-05-24T22:09:13.567Z,10.43
2023-05-24T22:11:16.406Z,9.67
2023-05-24T22:13:19.298Z,8.03
2023-05-24T22:15:22.070Z,9.93
2023-05-24T22:17:25.683Z,9.47
2023-05-24T22:19:40.094Z,13.50
2023-05-24T22:21:45.812Z,10.70
2023-05-24T22:23:48.720Z,10.60
2023-05-24T22:25:51.496Z,9.80
2023-05-24T22:27:55.672Z,9.13
2023-05-24T22:29:58.496Z,9.90
2023-05-24T22:32:01.285Z,9.00
2023-05-24T22:34:04.233Z,10.27
2023-05-24T22:36:07.131Z,11.73
2023-05-24T22:38:11.415Z,9.50
2023-05-24T22:40:14.692Z,8.50
2023-05-24T22:42:17.539Z,18.17
2023-05-24T22:44:20.846Z,6.70
2023-05-24T22:46:24.117Z,10.10
2023-05-24T22:48:27.430Z,13.00
2023-05-24T22:50:30.183Z,9.50
2023-05-24T22:52:33.891Z,10.50
2023-05-24T22:54:38.017Z,8.47
2023-05-24T22:56:41.159Z,14.93
2023-05-24T22:58:43.872Z,8.97
2023-05-24T23:00:46.665Z,11.63
2023-05-24T23:02:49.533Z,12.10
2023-05-24T23:04:53.775Z,14.20
2023-05-24T23:06:56.698Z,6.93
2023-05-24T23:08:59.523Z,12.90
2023-05-24T23:11:10.185Z,8.20
2023-05-24T23:13:14.304Z,6.77
2023-05-24T23:15:18.289Z,8.60
2023-05-24T23:17:23.688Z,8.73
2023-05-24T23:19:26.525Z,10.07
2023-05-24T23:21:29.398Z,13.17
2023-05-24T23:23:32.227Z,7.20
2023-05-24T23:25:35.144Z,17.67
2023-05-24T23:27:40.458Z,9.60
2023-05-24T23:29:43.220Z,8.93
2023-05-24T23:31:46.147Z,16.87
2023-05-24T23:33:49.007Z,14.27
2023-05-24T23:35:51.757Z,9.60
2023-05-24T23:37:54.577Z,8.70
2023-05-24T23:40:02.187Z,10.43
2023-05-24T23:42:06.697Z,6.53
2023-05-24T23:44:10.896Z,11.70
2023-05-24T23:46:16.966Z,6.40
2023-05-24T23:48:21.163Z,6.20
2023-05-24T23:50:23.976Z,13.90
2023-05-24T23:52:27.083Z,8.33
2023-05-24T23:54:29.856Z,7.97
2023-05-24T23:56:34.598Z,7.97
2023-05-24T23:58:37.585Z,9.57
